createdAt,value
2023-03-26T00:02:07.863Z,11.31
2023-03-26T00:04:37.030Z,10.72
2023-03-26T00:07:05.942Z,11.44
2023-03-26T00:09:34.812Z,13.16
2023-03-26T00:12:03.912Z,13.98
2023-03-26T00:14:33.531Z,13.09
2023-03-26T00:17:02.603Z,12.04
2023-03-26T00:19:32.308Z,11.20
2023-03-26T00:22:03.638Z,11.08
2023-03-26T00:24:32.610Z,12.73
2023-03-26T00:27:02.034Z,13.76
2023-03-26T00:29:33.410Z,13.05
2023-03-26T00:32:02.450Z,12.02
2023-03-26T00:34:34.415Z,11.21
2023-03-26T00:37:03.359Z,10.59
2023-03-26T00:39:33.900Z,10.85
2023-03-26T00:42:07.076Z,12.77
2023-03-26T00:44:36.211Z,14.37
2023-03-26T00:47:05.145Z,14.64
2023-03-26T00:49:34.174Z,13.68
2023-03-26T00:52:03.667Z,12.46
2023-03-26T00:54:32.578Z,11.56
2023-03-26T00:57:01.555Z,10.88
2023-03-26T00:59:30.593Z,10.97
2023-03-26T01:04:32.186Z,13.74
2023-03-26T01:07:05.071Z,13.02
2023-03-26T01:09:37.648Z,11.98
2023-03-26T01:12:08.819Z,11.13
2023-03-26T01:14:38.254Z,11.04
2023-03-26T01:17:08.220Z,12.70
2023-03-26T01:20:26.720Z,13.71
2023-03-26T01:23:05.192Z,12.73
2023-03-26T01:25:42.388Z,11.70
2023-03-26T01:28:12.725Z,10.99
2023-03-26T01:31:01.484Z,11.88
2023-03-26T01:33:52.484Z,13.79
2023-03-26T01:36:32.528Z,14.29
2023-03-26T01:39:27.641Z,13.09
2023-03-26T01:42:15.511Z,11.91
2023-03-26T01:44:53.754Z,11.09
2023-03-26T01:47:23.226Z,11.59
2023-03-26T01:49:52.243Z,13.37
2023-03-26T01:52:26.147Z,14.13
2023-03-26T01:54:56.834Z,13.40
2023-03-26T01:58:03.841Z,12.33
2023-03-26T02:00:41.604Z,11.46
2023-03-26T02:03:27.988Z,12.86
2023-03-26T02:06:15.990Z,13.72
2023-03-26T02:09:06.647Z,12.73
2023-03-26T02:11:37.939Z,11.69
2023-03-26T02:14:08.566Z,11.34
2023-03-26T02:16:38.072Z,12.91
2023-03-26T02:19:15.831Z,14.06
2023-03-26T02:21:45.952Z,13.31
2023-03-26T02:24:14.908Z,12.29
2023-03-26T02:26:44.661Z,11.49
2023-03-26T02:29:19.371Z,10.91
2023-03-26T02:31:49.191Z,11.58
2023-03-26T02:34:18.184Z,13.29
2023-03-26T02:36:47.171Z,14.44
2023-03-26T02:39:16.152Z,14.80
2023-03-26T02:41:45.063Z,13.81
2023-03-26T02:44:14.367Z,12.67
2023-03-26T02:46:43.269Z,11.74
2023-03-26T02:49:12.232Z,11.53
2023-03-26T02:51:41.424Z,13.13
2023-03-26T02:54:10.525Z,14.46
2023-03-26T02:56:39.495Z,15.25
2023-03-26T02:59:08.398Z,15.17
2023-03-26T03:01:42.994Z,13.84
2023-03-26T03:04:13.013Z,12.55
2023-03-26T03:06:41.969Z,11.58
2023-03-26T03:09:11.801Z,11.38
2023-03-26T03:11:42.116Z,13.05
2023-03-26T03:14:11.016Z,14.39
2023-03-26T03:16:39.976Z,14.81
2023-03-26T03:19:08.967Z,13.72
2023-03-26T03:21:37.949Z,12.48
2023-03-26T03:24:07.263Z,11.54
2023-03-26T03:26:36.645Z,12.08
2023-03-26T03:29:05.593Z,13.67
2023-03-26T03:31:34.457Z,14.87
2023-03-26T03:34:03.654Z,14.58
2023-03-26T03:36:33.536Z,13.29
2023-03-26T03:39:02.773Z,12.13
2023-03-26T03:41:32.201Z,11.25
2023-03-26T03:44:01.791Z,11.07
2023-03-26T03:46:30.986Z,12.76
2023-03-26T03:48:59.948Z,14.05
2023-03-26T03:51:28.923Z,14.48
2023-03-26T03:53:57.934Z,13.47
2023-03-26T03:56:26.895Z,12.32
2023-03-26T03:58:58.427Z,11.45
2023-03-26T04:01:30.753Z,11.30
2023-03-26T04:04:00.222Z,13.06
2023-03-26T04:06:30.423Z,14.38
2023-03-26T04:08:59.392Z,14.79
2023-03-26T04:11:28.311Z,13.82
2023-03-26T04:13:57.214Z,12.63
2023-03-26T04:16:26.153Z,11.72
2023-03-26T04:18:55.470Z,11.48
2023-03-26T04:21:26.408Z,13.07
2023-03-26T04:23:55.305Z,14.45
2023-03-26T04:26:24.364Z,14.49
2023-03-26T04:28:56.680Z,13.36
2023-03-26T04:31:29.486Z,12.20
2023-03-26T04:34:07.862Z,11.31
2023-03-26T04:36:36.838Z,12.02
2023-03-26T04:39:06.960Z,13.74
2023-03-26T04:41:35.883Z,14.25
2023-03-26T04:44:05.517Z,13.24
2023-03-26T04:46:35.188Z,12.02
2023-03-26T04:49:04.228Z,11.53
2023-03-26T04:51:38.674Z,12.83
2023-03-26T04:54:08.610Z,13.81
2023-03-26T04:56:52.684Z,13.12
2023-03-26T04:59:26.730Z,11.99
2023-03-26T05:02:00.328Z,11.13
2023-03-26T05:04:34.785Z,11.75
2023-03-26T05:07:03.824Z,13.55
2023-03-26T05:09:33.086Z,14.18
2023-03-26T05:12:02.242Z,13.27
2023-03-26T05:14:31.235Z,12.15
2023-03-26T05:17:01.005Z,11.22
2023-03-26T05:19:29.882Z,11.32
2023-03-26T05:21:58.868Z,12.83
2023-03-26T05:24:28.867Z,14.09
2023-03-26T05:26:57.795Z,14.25
2023-03-26T05:29:27.241Z,13.07
2023-03-26T05:31:56.294Z,11.89
2023-03-26T05:34:27.339Z,11.02
2023-03-26T05:36:56.417Z,12.04
2023-03-26T05:39:26.942Z,13.52
2023-03-26T05:41:55.986Z,14.25
2023-03-26T05:44:25.012Z,13.36
2023-03-26T05:46:53.879Z,12.21
2023-03-26T05:49:22.803Z,11.27
2023-03-26T05:51:52.767Z,11.61
2023-03-26T05:54:23.292Z,13.18
2023-03-26T05:56:52.849Z,13.79
2023-03-26T05:59:21.903Z,12.92
2023-03-26T06:01:51.202Z,11.85
2023-03-26T06:04:21.558Z,11.12
2023-03-26T06:06:52.753Z,12.16
2023-03-26T06:09:21.967Z,13.69
2023-03-26T06:11:50.951Z,14.26
2023-03-26T06:14:19.848Z,13.25
2023-03-26T06:16:48.733Z,12.27
2023-03-26T06:19:17.668Z,11.58
2023-03-26T06:21:46.566Z,11.50
2023-03-26T06:24:16.680Z,13.23
2023-03-26T06:26:46.995Z,14.52
2023-03-26T06:29:16.183Z,14.03
2023-03-26T06:31:45.201Z,12.99
2023-03-26T06:34:14.211Z,12.06
2023-03-26T06:36:43.086Z,11.84
2023-03-26T06:39:11.977Z,13.38
2023-03-26T06:41:41.378Z,14.75
2023-03-26T06:44:11.406Z,15.03
2023-03-26T06:46:40.453Z,14.00
2023-03-26T06:49:09.457Z,12.90
2023-03-26T06:51:40.749Z,12.01
2023-03-26T06:54:09.961Z,11.51
2023-03-26T06:56:39.001Z,12.82
2023-03-26T06:59:07.951Z,14.43
2023-03-26T07:01:37.104Z,14.90
2023-03-26T07:04:06.178Z,13.93
2023-03-26T07:06:35.151Z,12.80
2023-03-26T07:09:04.336Z,11.99
2023-03-26T07:11:33.798Z,12.55
2023-03-26T07:14:02.724Z,14.10
2023-03-26T07:16:31.717Z,15.06
2023-03-26T07:19:00.682Z,14.27
2023-03-26T07:21:30.000Z,13.18
2023-03-26T07:23:59.256Z,12.38
2023-03-26T07:26:39.572Z,11.91
2023-03-26T07:29:18.178Z,13.14
2023-03-26T07:31:57.128Z,14.46
2023-03-26T07:35:01.603Z,13.95
2023-03-26T07:37:55.927Z,12.67
2023-03-26T07:40:46.501Z,11.88
2023-03-26T07:43:15.660Z,12.97
2023-03-26T07:45:45.233Z,14.55
2023-03-26T07:48:19.259Z,14.73
2023-03-26T07:50:48.492Z,13.65
2023-03-26T07:53:17.667Z,12.76
2023-03-26T07:56:13.092Z,12.16
2023-03-26T07:59:03.429Z,12.52
2023-03-26T08:01:51.077Z,14.66
2023-03-26T08:04:48.708Z,15.48
2023-03-26T08:07:35.086Z,14.22
2023-03-26T08:10:13.326Z,13.09
2023-03-26T08:13:04.097Z,12.34
2023-03-26T08:16:06.720Z,12.44
2023-03-26T08:18:45.832Z,14.58
2023-03-26T08:21:27.380Z,15.68
2023-03-26T08:24:00.800Z,14.84
2023-03-26T08:26:55.360Z,13.63
2023-03-26T08:29:46.767Z,12.61
2023-03-26T08:32:19.971Z,12.56
2023-03-26T08:34:49.782Z,14.44
2023-03-26T08:37:18.718Z,15.76
2023-03-26T08:39:47.643Z,15.47
2023-03-26T08:42:19.308Z,14.59
2023-03-26T08:45:25.620Z,13.93
2023-03-26T08:48:13.531Z,13.35
2023-03-26T08:51:01.652Z,13.61
2023-03-26T08:54:08.345Z,15.17
2023-03-26T08:56:53.256Z,14.86
2023-03-26T09:00:12.515Z,13.92
2023-03-26T09:02:44.407Z,13.01
2023-03-26T09:05:48.738Z,12.56
2023-03-26T09:08:33.150Z,13.18
2023-03-26T09:11:49.664Z,15.15
2023-03-26T09:14:39.918Z,15.10
2023-03-26T09:17:16.039Z,14.23
2023-03-26T09:20:08.978Z,13.65
2023-03-26T09:22:46.939Z,13.32
2023-03-26T09:25:47.703Z,13.19
2023-03-26T09:28:20.900Z,13.20
2023-03-26T09:31:17.593Z,14.62
2023-03-26T09:34:24.324Z,16.09
2023-03-26T09:36:57.419Z,15.45
2023-03-26T09:40:01.674Z,14.76
2023-03-26T09:43:01.074Z,14.02
2023-03-26T09:46:04.318Z,13.43
2023-03-26T09:49:04.559Z,12.97
2023-03-26T09:51:51.732Z,12.64
2023-03-26T09:54:48.609Z,12.41
2023-03-26T09:57:36.619Z,13.19
2023-03-26T10:00:34.544Z,15.36
2023-03-26T10:03:35.087Z,15.96
2023-03-26T10:06:20.485Z,15.08
2023-03-26T10:08:52.045Z,14.53
2023-03-26T10:11:33.702Z,14.23
2023-03-26T10:14:36.936Z,13.88
2023-03-26T10:17:57.142Z,13.38
2023-03-26T10:20:31.798Z,12.72
2023-03-26T10:23:12.703Z,12.28
2023-03-26T10:25:55.340Z,12.53
2023-03-26T10:28:31.965Z,14.57
2023-03-26T10:31:06.116Z,16.04
2023-03-26T10:34:00.163Z,16.30
2023-03-26T10:36:38.701Z,15.11
2023-03-26T10:39:36.167Z,14.18
2023-03-26T10:42:20.825Z,13.56
2023-03-26T10:45:09.374Z,13.27
2023-03-26T10:47:47.358Z,14.77
2023-03-26T10:50:32.135Z,16.65
2023-03-26T10:53:11.694Z,16.61
2023-03-26T10:55:46.801Z,15.76
2023-03-26T10:58:25.124Z,14.95
2023-03-26T11:01:03.426Z,14.35
2023-03-26T11:03:56.479Z,13.92
2023-03-26T11:06:38.973Z,13.96
2023-03-26T11:09:18.625Z,15.85
2023-03-26T11:12:01.414Z,16.91
2023-03-26T11:14:36.812Z,16.16
2023-03-26T11:17:05.736Z,15.17
2023-03-26T11:20:03.549Z,14.39
2023-03-26T11:22:54.654Z,13.63
2023-03-26T11:25:23.561Z,13.07
2023-03-26T11:28:23.641Z,12.71
2023-03-26T11:31:15.958Z,13.23
2023-03-26T11:33:50.588Z,15.63
2023-03-26T11:36:23.925Z,16.82
2023-03-26T11:38:57.836Z,16.34
2023-03-26T11:41:33.726Z,15.69
2023-03-26T11:44:13.586Z,15.21
2023-03-26T11:46:45.821Z,14.84
2023-03-26T11:49:19.786Z,14.61
2023-03-26T11:51:49.200Z,14.33
2023-03-26T11:54:18.379Z,14.02
2023-03-26T11:57:05.996Z,13.72
2023-03-26T11:59:59.390Z,13.42
2023-03-26T12:02:34.934Z,13.21
2023-03-26T12:05:10.854Z,13.10
2023-03-26T12:07:48.615Z,13.04
2023-03-26T12:10:22.685Z,13.90
2023-03-26T12:12:56.118Z,16.09
2023-03-26T12:15:26.379Z,17.02
2023-03-26T12:17:58.399Z,15.99
2023-03-26T12:20:33.634Z,14.90
2023-03-26T12:23:05.200Z,13.84
2023-03-26T12:25:37.221Z,12.98
2023-03-26T12:28:15.839Z,12.34
2023-03-26T12:31:04.309Z,12.61
2023-03-26T12:33:35.251Z,14.94
2023-03-26T12:36:27.649Z,16.60
2023-03-26T12:39:16.391Z,17.53
2023-03-26T12:44:46.550Z,16.77
2023-03-26T12:44:59.121Z,15.48
2023-03-26T12:47:58.514Z,14.51
2023-03-26T12:50:34.317Z,13.80
2023-03-26T12:53:49.377Z,14.11
2023-03-26T12:56:27.300Z,16.84
2023-03-26T12:59:02.010Z,17.78
2023-03-26T13:01:37.060Z,17.00
2023-03-26T13:04:34.425Z,15.93
2023-03-26T13:07:07.755Z,15.00
2023-03-26T13:10:08.698Z,14.54
2023-03-26T13:12:44.082Z,14.27
2023-03-26T13:15:23.892Z,14.20
2023-03-26T13:17:57.800Z,14.22
2023-03-26T13:20:43.437Z,15.11
2023-03-26T13:23:53.714Z,17.22
2023-03-26T13:26:55.909Z,17.07
2023-03-26T13:29:33.728Z,16.41
2023-03-26T13:32:30.449Z,15.96
2023-03-26T13:35:21.017Z,15.55
2023-03-26T13:38:05.104Z,15.17
2023-03-26T13:40:43.367Z,14.84
2023-03-26T13:43:34.003Z,14.55
2023-03-26T13:46:12.000Z,14.33
2023-03-26T13:49:13.690Z,14.16
2023-03-26T13:51:55.078Z,13.99
2023-03-26T13:54:54.944Z,13.78
2023-03-26T13:57:39.540Z,13.56
2023-03-26T14:00:17.426Z,13.47
2023-03-26T14:02:53.831Z,13.30
2023-03-26T14:05:51.546Z,13.13
2023-03-26T14:08:38.120Z,12.95
2023-03-26T14:11:15.906Z,12.77
2023-03-26T14:13:57.143Z,12.61
2023-03-26T14:16:34.643Z,12.47
2023-03-26T14:19:28.384Z,12.34
2023-03-26T14:22:19.366Z,12.23
2023-03-26T14:25:04.630Z,12.18
2023-03-26T14:28:06.136Z,12.15
2023-03-26T14:30:59.036Z,12.12
2023-03-26T14:33:34.302Z,12.04
2023-03-26T14:36:18.462Z,11.94
2023-03-26T14:38:47.345Z,11.86
2023-03-26T14:41:29.102Z,11.76
2023-03-26T14:44:48.363Z,11.72
2023-03-26T14:47:21.620Z,11.67
2023-03-26T14:50:09.261Z,11.64
2023-03-26T14:53:00.818Z,11.58
2023-03-26T14:55:49.112Z,11.47
2023-03-26T14:58:40.143Z,11.42
2023-03-26T15:01:21.367Z,11.40
2023-03-26T15:03:59.496Z,11.39
2023-03-26T15:06:53.567Z,11.37
2023-03-26T15:09:46.291Z,11.34
2023-03-26T15:12:44.482Z,11.33
2023-03-26T15:15:54.100Z,11.36
2023-03-26T15:19:02.348Z,11.38
2023-03-26T15:21:34.339Z,11.39
2023-03-26T15:24:24.980Z,11.42
2023-03-26T15:27:24.790Z,11.46
2023-03-26T15:30:44.956Z,11.47
2023-03-26T15:33:14.610Z,11.44
2023-03-26T15:36:03.414Z,11.40
2023-03-26T15:39:00.233Z,11.35
2023-03-26T15:42:00.433Z,11.33
2023-03-26T15:44:29.497Z,11.29
2023-03-26T15:47:29.292Z,11.23
2023-03-26T15:50:19.168Z,11.18
2023-03-26T15:52:57.044Z,11.15
2023-03-26T15:55:33.085Z,11.11
2023-03-26T15:58:26.483Z,11.09
2023-03-26T16:01:34.377Z,11.04
2023-03-26T16:04:18.314Z,11.02
2023-03-26T16:07:03.689Z,10.98
2023-03-26T16:09:51.473Z,10.95
2023-03-26T16:12:33.119Z,10.92
2023-03-26T16:15:09.527Z,10.89
2023-03-26T16:18:11.722Z,10.82
2023-03-26T16:20:50.905Z,10.76
2023-03-26T16:23:29.475Z,10.71
2023-03-26T16:26:13.056Z,10.66
2023-03-26T16:28:45.122Z,10.60
2023-03-26T16:31:36.156Z,10.54
2023-03-26T16:34:07.216Z,10.76
2023-03-26T16:36:49.999Z,12.86
2023-03-26T16:39:23.466Z,14.99
2023-03-26T16:42:06.248Z,15.07
2023-03-26T16:44:46.740Z,13.99
2023-03-26T16:47:27.548Z,13.16
2023-03-26T16:50:18.887Z,12.55
2023-03-26T16:53:02.100Z,12.06
2023-03-26T16:55:31.087Z,11.69
2023-03-26T16:58:10.477Z,11.41
2023-03-26T17:00:46.271Z,11.16
2023-03-26T17:03:43.627Z,10.94
2023-03-26T17:06:50.042Z,10.69
2023-03-26T17:09:34.473Z,10.46
2023-03-26T17:12:27.501Z,10.28
2023-03-26T17:15:31.016Z,10.09
2023-03-26T17:18:32.299Z,10.70
2023-03-26T17:21:46.121Z,13.33
2023-03-26T17:24:44.135Z,14.89
2023-03-26T17:27:47.181Z,13.98
2023-03-26T17:30:41.264Z,12.78
2023-03-26T17:33:23.392Z,11.96
2023-03-26T17:36:12.571Z,11.38
2023-03-26T17:38:47.781Z,10.89
2023-03-26T17:41:49.399Z,10.50
2023-03-26T17:44:37.093Z,10.08
2023-03-26T17:47:16.647Z,9.71
2023-03-26T17:49:51.366Z,9.38
2023-03-26T17:52:41.779Z,9.70
2023-03-26T17:55:21.280Z,12.14
2023-03-26T17:58:17.538Z,13.85
2023-03-26T18:01:12.461Z,13.80
2023-03-26T18:03:49.491Z,12.45
2023-03-26T18:06:34.300Z,11.47
2023-03-26T18:09:18.511Z,10.72
2023-03-26T18:12:12.540Z,10.13
2023-03-26T18:15:00.141Z,9.64
2023-03-26T18:17:32.524Z,9.24
2023-03-26T18:20:10.186Z,9.50
2023-03-26T18:22:39.360Z,11.72
2023-03-26T18:25:32.242Z,13.44
2023-03-26T18:28:04.629Z,13.89
2023-03-26T18:30:47.033Z,12.76
2023-03-26T18:33:16.108Z,11.59
2023-03-26T18:35:52.113Z,10.82
2023-03-26T18:38:35.531Z,10.22
2023-03-26T18:41:11.190Z,9.71
2023-03-26T18:43:44.564Z,9.29
2023-03-26T18:46:14.869Z,9.59
2023-03-26T18:48:44.338Z,11.76
2023-03-26T18:51:13.365Z,13.48
2023-03-26T18:53:50.848Z,13.75
2023-03-26T18:56:31.456Z,12.60
2023-03-26T18:59:02.792Z,11.46
2023-03-26T19:01:35.411Z,10.68
2023-03-26T19:04:06.903Z,10.08
2023-03-26T19:06:42.078Z,9.60
2023-03-26T19:09:24.257Z,9.18
2023-03-26T19:12:32.689Z,9.58
2023-03-26T19:15:09.969Z,12.17
2023-03-26T19:17:42.993Z,13.60
2023-03-26T19:20:24.877Z,13.29
2023-03-26T19:22:55.433Z,12.01
2023-03-26T19:25:29.863Z,11.04
2023-03-26T19:27:59.306Z,10.27
2023-03-26T19:30:40.189Z,9.70
2023-03-26T19:33:20.829Z,9.20
2023-03-26T19:36:03.445Z,9.38
2023-03-26T19:38:44.462Z,11.61
2023-03-26T19:41:21.845Z,13.27
2023-03-26T19:43:56.176Z,12.96
2023-03-26T19:46:26.964Z,11.72
2023-03-26T19:48:58.114Z,10.74
2023-03-26T19:51:36.174Z,10.01
2023-03-26T19:54:16.081Z,9.37
2023-03-26T19:56:45.255Z,9.37
2023-03-26T19:59:15.333Z,11.43
2023-03-26T20:01:44.261Z,13.07
2023-03-26T20:04:13.768Z,12.77
2023-03-26T20:06:44.311Z,11.60
2023-03-26T20:09:14.203Z,10.63
2023-03-26T20:11:43.359Z,9.89
2023-03-26T20:14:16.662Z,9.30
2023-03-26T20:16:46.205Z,8.79
2023-03-26T20:19:15.730Z,8.84
2023-03-26T20:21:45.046Z,10.86
2023-03-26T20:24:17.682Z,12.62
2023-03-26T20:26:47.042Z,12.60
2023-03-26T20:29:16.536Z,11.45
2023-03-26T20:31:46.230Z,10.44
2023-03-26T20:34:24.312Z,9.67
2023-03-26T20:37:01.303Z,9.02
2023-03-26T20:39:30.988Z,8.46
2023-03-26T20:41:59.901Z,8.02
2023-03-26T20:44:29.099Z,8.18
2023-03-26T20:46:59.123Z,10.19
2023-03-26T20:49:29.371Z,11.99
2023-03-26T20:51:59.629Z,12.16
2023-03-26T20:54:30.404Z,10.99
2023-03-26T20:56:59.397Z,9.88
2023-03-26T20:59:29.992Z,9.07
2023-03-26T21:01:59.469Z,8.42
2023-03-26T21:04:29.016Z,7.88
2023-03-26T21:07:07.142Z,7.92
2023-03-26T21:09:40.895Z,10.09
2023-03-26T21:12:17.364Z,11.78
2023-03-26T21:14:46.852Z,11.91
2023-03-26T21:17:18.956Z,10.72
2023-03-26T21:19:49.348Z,9.61
2023-03-26T21:22:46.383Z,8.78
2023-03-26T21:25:25.803Z,7.97
2023-03-26T21:28:17.351Z,7.36
2023-03-26T21:30:48.408Z,7.59
2023-03-26T21:33:17.777Z,9.75
2023-03-26T21:35:53.151Z,11.41
2023-03-26T21:38:23.922Z,11.39
2023-03-26T21:40:58.859Z,10.10
2023-03-26T21:43:28.000Z,8.92
2023-03-26T21:45:58.243Z,8.08
2023-03-26T21:48:29.185Z,7.45
2023-03-26T21:51:02.508Z,6.91
2023-03-26T21:53:32.067Z,7.04
2023-03-26T21:56:18.113Z,9.11
2023-03-26T21:59:05.809Z,11.05
2023-03-26T22:01:43.926Z,11.34
2023-03-26T22:04:24.804Z,10.04
2023-03-26T22:07:01.280Z,8.79
2023-03-26T22:09:36.321Z,7.91
2023-03-26T22:12:05.878Z,7.25
2023-03-26T22:14:35.464Z,7.44
2023-03-26T22:17:05.359Z,9.51
2023-03-26T22:19:34.749Z,11.24
2023-03-26T22:22:03.663Z,11.93
2023-03-26T22:24:32.980Z,10.90
2023-03-26T22:27:02.023Z,9.64
2023-03-26T22:29:30.934Z,8.67
2023-03-26T22:31:59.846Z,8.00
2023-03-26T22:34:29.362Z,9.08
2023-03-26T22:36:58.357Z,11.20
2023-03-26T22:39:27.637Z,12.18
2023-03-26T22:41:56.654Z,11.28
2023-03-26T22:44:25.569Z,10.03
2023-03-26T22:46:54.660Z,9.05
2023-03-26T22:49:27.500Z,8.32
2023-03-26T22:51:57.214Z,7.69
2023-03-26T22:54:26.378Z,7.62
2023-03-26T22:56:55.620Z,9.62
2023-03-26T22:59:24.933Z,11.49
2023-03-26T23:01:54.383Z,12.11
2023-03-26T23:04:30.865Z,11.02
2023-03-26T23:07:01.392Z,9.71
2023-03-26T23:09:30.417Z,8.76
2023-03-26T23:11:59.372Z,8.06
2023-03-26T23:14:28.838Z,7.50
2023-03-26T23:16:58.274Z,7.52
2023-03-26T23:19:27.374Z,9.59
2023-03-26T23:21:56.778Z,11.43
2023-03-26T23:24:30.210Z,11.68
2023-03-26T23:26:59.176Z,10.43
2023-03-26T23:29:30.194Z,9.26
2023-03-26T23:32:00.100Z,8.37
2023-03-26T23:34:28.967Z,7.71
2023-03-26T23:36:58.259Z,7.19
2023-03-26T23:39:28.699Z,6.77
2023-03-26T23:41:57.635Z,6.89
2023-03-26T23:44:29.492Z,9.05
2023-03-26T23:47:00.659Z,10.95
2023-03-26T23:49:29.586Z,11.03
2023-03-26T23:51:58.476Z,9.79
2023-03-26T23:54:27.508Z,8.67
2023-03-26T23:56:57.859Z,7.81
2023-03-26T23:59:26.771Z,7.13
